Time;durP1;ratioP1;P1;durP2;ratioP2;P2;SDS_P1;SDS_P2;PMS_P1;PMS_P2;Temp;Humidity;BMP_temperature;BMP_pressure;BME280_temperature;BME280_humidity;BME280_pressure;Samples;Min_cycle;Max_cycle;Signal;HPM_P1;HPM_P2
2022/02/09 00:00:38;;;;;;;31.27;24.93;;;8.80;95.40;;;;;;4982379;28;20205;-92
2022/02/09 00:03:16;;;;;;;39.37;28.07;;;8.80;95.40;;;;;;4981926;28;20237;-93
2022/02/09 00:05:55;;;;;;;33.37;26.37;;;8.80;95.40;;;;;;4982771;28;20209;-92
2022/02/09 00:08:22;;;;;;;34.13;25.97;;;8.90;95.40;;;;;;4981280;28;20220;-92
2022/02/09 00:10:55;;;;;;;31.83;23.30;;;8.90;95.40;;;;;;4979707;28;20265;-92
2022/02/09 00:13:46;;;;;;;35.00;26.47;;;8.90;95.30;;;;;;4982627;28;20173;-93
2022/02/09 00:19:00;;;;;;;36.40;29.87;;;8.90;95.20;;;;;;5010946;28;20244;-93
2022/02/09 00:24:42;;;;;;;33.97;28.57;;;8.90;95.20;;;;;;4994985;28;20221;-93
2022/02/09 01:38:23;;;;;;;30.80;25.53;;;8.80;95.00;;;;;;5015916;28;20542;-93
2022/02/09 01:57:24;;;;;;;29.90;25.63;;;8.80;95.40;;;;;;5015065;28;20149;-93
2022/02/09 01:59:53;;;;;;;29.53;26.20;;;8.70;95.40;;;;;;5000058;28;20174;-93
2022/02/09 02:02:18;;;;;;;29.50;26.40;;;8.70;95.50;;;;;;4998459;28;20242;-93
2022/02/09 02:04:45;;;;;;;27.97;23.63;;;8.70;95.50;;;;;;4998468;28;20198;-93
2022/02/09 02:07:29;;;;;;;33.17;26.13;;;8.60;95.50;;;;;;5002432;28;20210;-93
2022/02/09 02:10:03;;;;;;;34.63;30.47;;;8.70;95.60;;;;;;4999102;28;20157;-93
2022/02/09 02:12:47;;;;;;;33.67;27.30;;;8.70;95.60;;;;;;5001978;28;20256;-93
2022/02/09 02:15:40;;;;;;;28.43;25.40;;;8.70;95.60;;;;;;4998186;28;20202;-93
2022/02/09 02:18:04;;;;;;;34.47;29.00;;;8.70;95.60;;;;;;5014966;28;20212;-93
2022/02/09 02:23:37;;;;;;;36.20;30.37;;;8.70;95.60;;;;;;5014945;28;20214;-93
2022/02/09 02:36:57;;;;;;;27.63;24.23;;;8.70;95.30;;;;;;5013048;28;20206;-94
2022/02/09 03:09:06;;;;;;;26.30;20.77;;;8.60;95.40;;;;;;5017661;28;20152;-93
2022/02/09 03:14:19;;;;;;;28.27;22.47;;;8.50;95.40;;;;;;5015993;28;20161;-94
2022/02/09 03:16:58;;;;;;;24.47;21.43;;;8.50;95.50;;;;;;4999983;28;20170;-93
2022/02/09 03:43:55;;;;;;;30.40;25.50;;;8.40;95.60;;;;;;5014592;28;20205;-93
2022/02/09 03:46:45;;;;;;;33.87;28.33;;;8.40;95.50;;;;;;4998912;28;20200;-93
2022/02/09 03:52:05;;;;;;;23.90;19.47;;;8.40;95.40;;;;;;5014537;28;20162;-92
2022/02/09 03:57:29;;;;;;;32.13;25.20;;;8.50;95.30;;;;;;5017943;28;20150;-93
2022/02/09 04:00:03;;;;;;;38.00;27.10;;;8.40;95.20;;;;;;5001415;28;20185;-94
2022/02/09 04:02:30;;;;;;;30.20;23.77;;;8.50;95.30;;;;;;4998134;28;20249;-91
2022/02/09 04:05:07;;;;;;;30.00;25.63;;;8.50;95.20;;;;;;5033493;23;20241;-94
2022/02/09 04:07:35;;;;;;;32.57;24.23;;;8.50;95.10;;;;;;5000340;28;20166;-94
2022/02/09 04:10:02;;;;;;;26.37;23.50;;;8.40;95.10;;;;;;4999627;28;20194;-93
2022/02/09 04:12:38;;;;;;;29.77;26.47;;;8.50;95.20;;;;;;5000097;28;20174;-93
2022/02/09 04:15:21;;;;;;;35.73;27.17;;;8.40;95.20;;;;;;5002028;28;20217;-94
2022/02/09 04:18:07;;;;;;;23.40;19.47;;;8.40;95.20;;;;;;5002438;28;20656;-93
2022/02/09 04:37:18;;;;;;;33.30;23.17;;;8.30;95.20;;;;;;5019788;28;20153;-93
2022/02/09 04:39:52;;;;;;;30.70;23.63;;;8.30;95.20;;;;;;5005000;28;20166;-94
2022/02/09 04:42:37;;;;;;;33.67;26.23;;;8.40;95.20;;;;;;5002839;28;20170;-93
2022/02/09 04:47:57;;;;;;;30.07;23.60;;;8.30;95.10;;;;;;5021757;28;20178;-94
2022/02/09 04:50:31;;;;;;;33.07;26.37;;;8.30;95.10;;;;;;5004162;28;20158;-95
2022/02/09 04:53:14;;;;;;;30.33;21.93;;;8.30;95.10;;;;;;5005093;28;20155;-95
2022/02/09 05:04:09;;;;;;;37.90;28.00;;;8.30;95.20;;;;;;5020775;28;20195;-93
2022/02/09 05:26:08;;;;;;;31.17;20.90;;;8.30;94.50;;;;;;5018663;28;20201;-93
2022/02/09 05:28:34;;;;;;;35.80;25.53;;;8.30;94.60;;;;;;5000588;28;20158;-93
2022/02/09 05:31:08;;;;;;;30.47;22.83;;;8.30;94.60;;;;;;5000533;28;20186;-93
2022/02/09 05:33:36;;;;;;;31.60;22.27;;;8.30;94.60;;;;;;5000701;28;20161;-93
2022/02/09 05:36:03;;;;;;;32.47;20.70;;;8.30;94.50;;;;;;5000078;28;20301;-93
2022/02/09 05:38:28;;;;;;;38.73;24.40;;;8.30;94.50;;;;;;5001159;28;20173;-93
2022/02/09 05:41:03;;;;;;;26.03;18.70;;;8.30;94.50;;;;;;5000781;28;20182;-93
2022/02/09 05:43:29;;;;;;;31.83;21.20;;;8.30;94.40;;;;;;4997684;28;20205;-93
2022/02/09 05:46:17;;;;;;;29.40;21.67;;;8.30;94.40;;;;;;5000005;28;20185;-93
2022/02/09 05:51:39;;;;;;;24.97;19.63;;;8.30;94.10;;;;;;5017575;28;20186;-93
2022/02/09 05:56:46;;;;;;;16.13;13.27;;;8.30;93.80;;;;;;5017478;28;20260;-92
2022/02/09 05:59:27;;;;;;;23.97;16.63;;;8.30;93.80;;;;;;4998073;28;20176;-92
2022/02/09 06:01:53;;;;;;;22.63;14.77;;;8.30;93.70;;;;;;5000475;28;20158;-93
2022/02/09 06:04:21;;;;;;;27.70;18.80;;;8.30;93.60;;;;;;4997818;28;20216;-92
2022/02/09 06:06:57;;;;;;;32.30;17.27;;;8.30;93.50;;;;;;4999803;28;20198;-92
2022/02/09 06:09:22;;;;;;;25.80;20.33;;;8.30;93.40;;;;;;4998346;28;20178;-93
2022/02/09 06:12:06;;;;;;;34.00;18.20;;;8.30;93.30;;;;;;4997087;28;20184;-93
2022/02/09 06:19:53;;;;;;;24.67;17.27;;;8.40;93.10;;;;;;5017319;28;20169;-92
2022/02/09 06:22:20;;;;;;;22.43;16.40;;;8.40;93.00;;;;;;4998856;28;20184;-92
2022/02/09 06:24:46;;;;;;;13.80;11.07;;;8.40;93.00;;;;;;4998607;28;20256;-93
2022/02/09 06:27:13;;;;;;;23.00;17.77;;;8.30;93.00;;;;;;4998840;28;20278;-92
2022/02/09 06:29:47;;;;;;;22.87;18.80;;;8.30;93.10;;;;;;5000132;28;20174;-92
2022/02/09 06:32:18;;;;;;;23.93;18.27;;;8.40;93.10;;;;;;4999753;28;20209;-92
2022/02/09 06:34:48;;;;;;;25.67;17.33;;;8.30;93.10;;;;;;4998338;28;20224;-92
2022/02/09 06:37:22;;;;;;;27.13;18.07;;;8.30;93.10;;;;;;4998060;28;20178;-92
2022/02/09 06:40:00;;;;;;;23.17;18.37;;;8.30;93.10;;;;;;4998386;28;20250;-92
2022/02/09 06:42:37;;;;;;;17.53;15.40;;;8.30;93.20;;;;;;4998813;28;20184;-92
2022/02/09 06:45:10;;;;;;;22.97;18.30;;;8.30;93.30;;;;;;4998584;28;20185;-93
2022/02/09 06:47:39;;;;;;;19.37;16.83;;;8.30;93.40;;;;;;4997416;28;20163;-92
2022/02/09 06:50:11;;;;;;;25.87;18.00;;;8.30;93.40;;;;;;4997262;28;20245;-92
2022/02/09 06:52:40;;;;;;;22.27;19.27;;;8.30;93.70;;;;;;4998810;28;20166;-92
2022/02/09 06:55:13;;;;;;;27.03;20.53;;;8.10;93.90;;;;;;4997168;28;20186;-93
2022/02/09 07:00:16;;;;;;;27.47;17.83;;;8.10;94.10;;;;;;5014359;28;20158;-92
2022/02/09 07:02:43;;;;;;;24.33;17.87;;;8.10;94.10;;;;;;5001217;28;20194;-93
2022/02/09 07:05:13;;;;;;;22.83;16.47;;;8.10;94.00;;;;;;5000077;28;20296;-93
2022/02/09 07:07:39;;;;;;;25.93;16.40;;;8.20;94.00;;;;;;4997230;28;20178;-92
2022/02/09 07:10:06;;;;;;;28.70;19.17;;;8.20;93.80;;;;;;4998113;28;20190;-92
2022/02/09 07:12:32;;;;;;;26.53;18.90;;;8.20;93.70;;;;;;4998075;28;20186;-92
2022/02/09 07:15:02;;;;;;;28.10;19.27;;;8.20;93.60;;;;;;4993526;28;20198;-91
2022/02/09 07:17:28;;;;;;;21.17;17.23;;;8.20;93.50;;;;;;4994484;28;20177;-92
2022/02/09 07:19:57;;;;;;;21.17;16.53;;;8.20;93.30;;;;;;4993961;28;20181;-93
2022/02/09 07:22:25;;;;;;;21.70;16.60;;;8.20;93.10;;;;;;4992094;28;20241;-92
2022/02/09 07:25:03;;;;;;;24.20;19.20;;;8.30;93.00;;;;;;4990805;28;20226;-91
2022/02/09 07:30:13;;;;;;;23.00;18.80;;;8.20;92.90;;;;;;5007128;28;20162;-92
2022/02/09 07:32:39;;;;;;;26.30;19.20;;;8.20;92.80;;;;;;4992760;28;20245;-92
2022/02/09 07:35:07;;;;;;;26.57;19.27;;;8.30;92.80;;;;;;4992278;28;20209;-92
2022/02/09 07:37:33;;;;;;;20.73;17.17;;;8.20;92.70;;;;;;4991735;28;20185;-92
2022/02/09 07:40:00;;;;;;;20.43;15.40;;;8.30;92.60;;;;;;4993515;28;20170;-92
2022/02/09 07:42:28;;;;;;;18.43;14.77;;;8.30;92.60;;;;;;4992358;28;20269;-92
2022/02/09 07:45:06;;;;;;;14.47;12.53;;;8.30;92.50;;;;;;4991678;28;20749;-92
2022/02/09 07:47:48;;;;;;;23.37;16.27;;;8.30;92.20;;;;;;4989886;28;20194;-91
2022/02/09 07:52:55;;;;;;;19.57;14.20;;;8.30;92.00;;;;;;5007794;28;20250;-92
2022/02/09 07:55:21;;;;;;;25.30;16.47;;;8.30;92.10;;;;;;4983044;28;20273;-90
2022/02/09 07:57:46;;;;;;;19.20;14.37;;;8.30;92.10;;;;;;4979287;28;20190;-91
2022/02/09 08:00:13;;;;;;;16.97;13.97;;;8.30;91.90;;;;;;4980241;28;20178;-92
2022/02/09 08:02:40;;;;;;;20.57;15.70;;;8.30;91.90;;;;;;4981517;28;20201;-92
2022/02/09 08:05:05;;;;;;;14.47;12.87;;;8.30;92.00;;;;;;4982860;28;20691;-91
2022/02/09 08:07:31;;;;;;;23.10;15.70;;;8.30;91.80;;;;;;4984701;28;20221;-91
2022/02/09 08:09:59;;;;;;;18.67;13.43;;;8.30;91.70;;;;;;4982245;28;20620;-91
2022/02/09 08:12:54;;;;;;;13.30;10.87;;;8.30;91.70;;;;;;4987350;28;20174;-92
2022/02/09 08:29:19;;;;;;;22.50;16.80;;;8.40;91.30;;;;;;4995122;28;20228;-91
2022/02/09 08:34:12;;;;;;;15.97;14.00;;;8.30;91.20;;;;;;4994597;28;20628;-91
2022/02/09 08:36:38;;;;;;;19.53;15.30;;;8.40;91.10;;;;;;4976800;28;20202;-90
2022/02/09 08:39:05;;;;;;;16.70;12.57;;;8.40;91.10;;;;;;4978261;28;20175;-91
2022/02/09 08:41:31;;;;;;;19.40;12.77;;;8.40;90.80;;;;;;4981032;28;20554;-92
2022/02/09 08:43:56;;;;;;;17.90;14.23;;;8.40;90.90;;;;;;4980958;28;20220;-92
2022/02/09 08:46:25;;;;;;;18.30;12.10;;;8.40;90.60;;;;;;4979890;28;20194;-92
2022/02/09 08:48:51;;;;;;;16.60;14.10;;;8.50;90.50;;;;;;4979794;28;20174;-88
2022/02/09 08:51:19;;;;;;;18.60;15.40;;;8.50;90.70;;;;;;4977382;28;20285;-92
2022/02/09 10:33:37;;;;;;;16.43;9.80;;;9.00;89.00;;;;;;5036741;28;20299;-92
2022/02/09 10:36:14;;;;;;;11.17;10.00;;;8.90;89.60;;;;;;5019278;28;20681;-91
2022/02/09 10:38:42;;;;;;;14.57;10.10;;;8.80;89.90;;;;;;5018597;28;20172;-91
2022/02/09 10:41:16;;;;;;;15.13;11.50;;;8.80;90.30;;;;;;5017996;28;20184;-91
2022/02/09 10:43:43;;;;;;;12.77;11.57;;;8.80;90.70;;;;;;5018038;28;20598;-91
2022/02/09 10:46:14;;;;;;;14.50;12.67;;;8.70;91.20;;;;;;5018290;28;20192;-91
2022/02/09 10:48:49;;;;;;;12.60;11.30;;;8.60;91.60;;;;;;5018782;28;20176;-92
2022/02/09 10:51:31;;;;;;;14.57;12.23;;;8.60;92.00;;;;;;5018845;28;20191;-91
2022/02/09 10:54:08;;;;;;;15.33;12.03;;;8.60;92.10;;;;;;5063225;23;20232;-92
2022/02/09 10:56:35;;;;;;;11.30;9.80;;;8.60;92.20;;;;;;5015322;28;20189;-93
2022/02/09 10:59:04;;;;;;;15.90;12.63;;;8.50;92.40;;;;;;5014916;28;20232;-92
2022/02/09 11:01:30;;;;;;;14.50;12.73;;;8.50;92.70;;;;;;5015689;28;20174;-93
2022/02/09 11:03:57;;;;;;;14.90;13.30;;;8.50;92.80;;;;;;5014797;28;20217;-91
2022/02/09 11:06:27;;;;;;;12.43;11.33;;;8.50;92.80;;;;;;5015674;28;20197;-92
2022/02/09 11:08:53;;;;;;;15.07;11.43;;;8.60;92.90;;;;;;5015399;28;20176;-93
2022/02/09 11:11:20;;;;;;;11.60;10.40;;;8.60;92.90;;;;;;5015123;28;20170;-92
2022/02/09 11:13:46;;;;;;;15.03;11.80;;;8.60;92.80;;;;;;5015009;28;20205;-92
2022/02/09 11:16:12;;;;;;;17.37;13.00;;;8.60;92.80;;;;;;5015992;28;20208;-93
2022/02/09 11:18:39;;;;;;;20.67;12.47;;;8.60;92.80;;;;;;5015807;28;20181;-92
2022/02/09 11:21:10;;;;;;;11.00;10.00;;;8.60;92.90;;;;;;5016412;28;20547;-92
2022/02/09 11:23:41;;;;;;;15.97;11.70;;;8.60;92.80;;;;;;5016448;28;20250;-92
2022/02/09 11:30:01;;;;;;;13.60;12.30;;;8.60;92.80;;;;;;5016863;28;20165;-93
2022/02/09 11:32:43;;;;;;;14.93;10.90;;;8.50;93.20;;;;;;5020012;28;20180;-93
2022/02/09 11:35:34;;;;;;;12.07;10.73;;;8.50;93.20;;;;;;5023877;28;20227;-92
2022/02/09 11:43:25;;;;;;;10.67;9.50;;;8.60;92.70;;;;;;5017785;28;20189;-93
2022/02/09 11:51:45;;;;;;;7.40;6.50;;;8.60;92.60;;;;;;5017032;28;20196;-93
2022/02/09 11:54:48;;;;;;;8.00;6.40;;;8.60;92.60;;;;;;5002716;28;20190;-92
2022/02/09 12:09:41;;;;;;;13.37;5.90;;;8.80;92.00;;;;;;4993071;28;20558;-92
2022/02/09 12:12:13;;;;;;;7.07;6.43;;;8.80;92.00;;;;;;4993035;28;20261;-92
2022/02/09 12:14:54;;;;;;;9.83;8.03;;;8.90;92.10;;;;;;4993787;28;20174;-93
2022/02/09 12:18:09;;;;;;;7.40;6.70;;;8.90;92.30;;;;;;4993500;28;20224;-92
2022/02/09 12:23:06;;;;;;;9.33;7.17;;;8.90;92.50;;;;;;4994887;28;20193;-92
2022/02/09 12:25:42;;;;;;;9.43;7.50;;;8.80;92.80;;;;;;4994843;28;20189;-93
2022/02/09 12:28:14;;;;;;;6.17;5.73;;;8.80;93.00;;;;;;4993764;28;20263;-92
2022/02/09 12:30:40;;;;;;;8.47;7.63;;;8.70;93.20;;;;;;4992613;28;20598;-91
2022/02/09 12:33:19;;;;;;;10.00;8.67;;;8.70;93.30;;;;;;4993327;28;20186;-92
2022/02/09 12:36:10;;;;;;;11.67;8.47;;;8.70;93.30;;;;;;4995515;28;20292;-93
2022/02/09 12:38:36;;;;;;;8.00;7.40;;;8.70;93.50;;;;;;4996579;28;20217;-92
2022/02/09 12:41:19;;;;;;;7.80;6.50;;;8.70;93.60;;;;;;4997328;28;20170;-93
2022/02/09 12:44:00;;;;;;;8.60;7.80;;;8.70;93.80;;;;;;4997921;28;20233;-93
2022/02/09 12:46:32;;;;;;;7.73;7.13;;;8.70;93.90;;;;;;4998617;28;20579;-93
2022/02/09 12:49:34;;;;;;;8.17;7.57;;;8.70;94.00;;;;;;5000648;28;20174;-92
2022/02/09 12:52:00;;;;;;;9.33;7.80;;;8.70;94.00;;;;;;4975360;28;20200;-92
2022/02/09 12:54:36;;;;;;;7.93;7.23;;;8.70;94.10;;;;;;5012466;28;20256;-93
2022/02/09 12:57:13;;;;;;;7.17;6.57;;;8.70;94.20;;;;;;5014371;28;20194;-92
2022/02/09 12:59:38;;;;;;;8.27;7.47;;;8.60;94.20;;;;;;5013955;28;20174;-93
2022/02/09 13:02:04;;;;;;;9.20;7.70;;;8.70;94.30;;;;;;5013776;28;20185;-92
2022/02/09 13:04:38;;;;;;;8.73;7.93;;;8.60;94.30;;;;;;5012508;28;20233;-93
2022/02/09 13:07:07;;;;;;;8.30;6.70;;;8.60;94.40;;;;;;5012997;28;20178;-93
2022/02/09 13:09:39;;;;;;;7.63;6.97;;;8.60;94.40;;;;;;5013829;28;20249;-93
2022/02/09 13:12:06;;;;;;;8.13;7.43;;;8.60;94.40;;;;;;5017320;28;20158;-93
2022/02/09 13:14:41;;;;;;;6.50;6.00;;;8.60;94.50;;;;;;5016172;28;20192;-93
2022/02/09 13:17:29;;;;;;;8.43;7.63;;;8.60;94.50;;;;;;5015821;28;20185;-92
2022/02/09 13:20:32;;;;;;;7.17;6.63;;;8.70;94.50;;;;;;5015669;28;20185;-93
2022/02/09 16:46:22;;;;;;;31.20;10.57;;;7.70;93.50;;;;;;5038022;28;20161;-92
2022/02/09 16:48:57;;;;;;;30.03;9.60;;;7.70;93.50;;;;;;5020356;28;20211;-92
2022/02/09 16:51:24;;;;;;;27.73;9.33;;;7.70;93.50;;;;;;5020128;28;20274;-89
2022/02/09 16:54:08;;;;;;;20.43;8.50;;;7.70;93.50;;;;;;5022839;28;20177;-93
2022/02/09 17:20:56;;;;;;;31.10;10.27;;;7.60;93.50;;;;;;5036170;28;20207;-89
2022/02/09 17:23:22;;;;;;;33.03;10.30;;;7.60;93.40;;;;;;5017768;28;20216;-90
2022/02/09 17:25:47;;;;;;;30.53;9.67;;;7.60;93.40;;;;;;5036036;28;20202;-89
2022/02/09 17:28:16;;;;;;;21.90;9.33;;;7.60;93.40;;;;;;5035910;28;20210;-89
2022/02/09 17:33:14;;;;;;;31.97;10.07;;;7.50;93.30;;;;;;5036114;28;20184;-90
2022/02/09 17:36:27;;;;;;;22.10;9.13;;;7.50;93.30;;;;;;5036084;28;20196;-89
2022/02/09 17:57:54;;;;;;;31.48;10.48;;;7.50;93.20;;;;;;5035563;28;20428;-91
2022/02/09 18:00:20;;;;;;;27.00;10.40;;;7.50;93.30;;;;;;5019040;28;20223;-90
2022/02/09 18:02:49;;;;;;;29.50;12.53;;;7.50;93.10;;;;;;5017740;28;20267;-92
2022/02/09 18:05:37;;;;;;;26.97;11.30;;;7.40;93.10;;;;;;5018298;28;20634;-92
2022/02/09 18:08:07;;;;;;;33.50;10.73;;;7.40;93.20;;;;;;5035218;28;20259;-91
2022/02/09 18:11:26;;;;;;;30.30;10.43;;;7.40;93.20;;;;;;5017625;28;20231;-92
2022/02/09 18:14:13;;;;;;;27.47;10.30;;;7.40;93.20;;;;;;5034876;28;20185;-91
2022/02/09 18:27:38;;;;;;;17.67;10.70;;;7.30;93.50;;;;;;5035386;28;20580;-91
2022/02/09 18:29:46;;;;;;;35.73;11.60;;;7.30;93.50;;;;;;5035076;28;20208;-92
2022/02/09 18:32:40;;;;;;;24.57;11.00;;;7.30;93.50;;;;;;5017390;28;20165;-91
2022/02/09 18:38:01;;;;;;;27.70;12.07;;;7.30;93.50;;;;;;5035401;28;20242;-91
2022/02/09 18:43:23;;;;;;;25.57;10.70;;;7.30;93.60;;;;;;5035228;28;20195;-91
2022/02/09 18:45:57;;;;;;;29.10;11.43;;;7.30;93.60;;;;;;5017305;28;20236;-91
2022/02/09 19:04:45;;;;;;;29.40;10.83;;;7.20;93.40;;;;;;5034678;28;20199;-91
2022/02/09 19:08:11;;;;;;;27.80;10.10;;;7.20;93.40;;;;;;5016656;28;20645;-91
2022/02/09 19:18:28;;;;;;;28.00;9.87;;;7.10;93.40;;;;;;5034324;28;20261;-91
2022/02/09 19:26:21;;;;;;;24.50;9.80;;;7.10;93.40;;;;;;5034170;28;20641;-91
2022/02/09 19:29:16;;;;;;;22.60;10.03;;;7.00;93.40;;;;;;5016180;28;20205;-91
2022/02/09 19:31:45;;;;;;;24.87;11.03;;;7.00;93.40;;;;;;5016539;28;20176;-91
2022/02/09 19:50:27;;;;;;;23.07;11.27;;;6.70;93.60;;;;;;5035165;28;20719;-92
2022/02/09 19:53:09;;;;;;;23.57;11.87;;;6.60;93.60;;;;;;5016855;28;20552;-91
2022/02/09 19:55:38;;;;;;;26.43;13.13;;;6.50;93.70;;;;;;5016439;28;20641;-92
2022/02/09 19:58:05;;;;;;;18.80;12.73;;;6.50;93.80;;;;;;5016052;28;20183;-91
2022/02/09 20:00:34;;;;;;;24.17;12.60;;;6.50;93.90;;;;;;5016078;28;20199;-92
2022/02/09 20:03:01;;;;;;;24.97;13.33;;;6.40;93.90;;;;;;5016618;28;20175;-91
2022/02/09 20:05:27;;;;;;;33.07;14.10;;;6.40;94.00;;;;;;5015954;28;20539;-92
2022/02/09 20:07:55;;;;;;;29.47;14.57;;;6.30;94.10;;;;;;5016514;28;20168;-91
2022/02/09 20:10:22;;;;;;;29.50;16.43;;;6.40;94.20;;;;;;5015981;28;20616;-91
2022/02/09 20:12:48;;;;;;;24.67;15.37;;;6.30;94.20;;;;;;5016057;28;20280;-92
2022/02/09 20:15:17;;;;;;;31.97;16.77;;;6.30;94.20;;;;;;5016004;28;20204;-91
2022/02/09 20:17:43;;;;;;;36.03;15.77;;;6.30;94.30;;;;;;5015748;28;20230;-91
2022/02/09 20:20:14;;;;;;;36.40;17.07;;;6.30;94.40;;;;;;5015873;28;20231;-92
2022/02/09 20:22:39;;;;;;;43.93;19.77;;;6.30;94.40;;;;;;5016654;28;20742;-92
2022/02/09 20:25:07;;;;;;;25.60;16.77;;;6.30;94.50;;;;;;5015684;28;20279;-91
2022/02/09 20:27:35;;;;;;;30.77;18.57;;;6.40;94.60;;;;;;5015861;28;20177;-91
2022/02/09 20:30:04;;;;;;;33.87;17.87;;;6.40;94.60;;;;;;5016202;28;20212;-92
2022/02/09 20:32:34;;;;;;;32.57;17.43;;;6.30;94.60;;;;;;5033645;28;20165;-92
2022/02/09 20:35:03;;;;;;;35.87;18.47;;;6.30;94.60;;;;;;5016171;28;20203;-92
2022/02/09 20:37:30;;;;;;;33.23;17.77;;;6.30;94.60;;;;;;5015670;28;20177;-92
2022/02/09 20:40:03;;;;;;;31.53;16.53;;;6.40;94.70;;;;;;5015430;28;20227;-91
2022/02/09 20:42:29;;;;;;;33.30;17.47;;;6.30;94.60;;;;;;5015659;28;20256;-91
2022/02/09 20:45:05;;;;;;;39.50;16.73;;;6.30;94.60;;;;;;5015509;28;20342;-90
2022/02/09 20:47:32;;;;;;;44.67;16.70;;;6.20;94.50;;;;;;5016225;28;20699;-91
2022/02/09 20:49:58;;;;;;;34.23;16.43;;;6.20;94.60;;;;;;5015175;28;20195;-91
2022/02/09 20:52:23;;;;;;;38.73;17.03;;;6.20;94.60;;;;;;5016406;28;20199;-92
2022/02/09 20:54:49;;;;;;;32.10;15.97;;;6.10;94.50;;;;;;5015782;28;20196;-92
2022/02/09 20:57:14;;;;;;;37.87;17.30;;;6.20;94.60;;;;;;5016169;28;20267;-91
2022/02/09 20:59:47;;;;;;;31.23;16.07;;;6.20;94.60;;;;;;5018948;28;20204;-92
2022/02/09 21:04:53;;;;;;;28.53;17.53;;;6.00;94.50;;;;;;5037353;28;20202;-92
2022/02/09 21:07:36;;;;;;;24.33;17.30;;;6.00;94.50;;;;;;5019958;28;20169;-90
2022/02/09 21:10:17;;;;;;;34.83;17.63;;;5.90;94.50;;;;;;5019460;28;20196;-92
2022/02/09 21:12:50;;;;;;;34.77;17.37;;;5.80;94.50;;;;;;5019157;28;20546;-91
2022/02/09 21:15:41;;;;;;;37.47;17.67;;;5.80;94.50;;;;;;5019043;28;20169;-92
2022/02/09 21:20:57;;;;;;;29.43;15.90;;;5.80;94.60;;;;;;5037019;28;20199;-91
2022/02/09 21:26:21;;;;;;;35.90;16.23;;;5.80;94.60;;;;;;5036652;28;20218;-91
2022/02/09 21:31:47;;;;;;;33.70;15.67;;;5.80;94.70;;;;;;5037134;28;20182;-93
2022/02/09 21:51:56;;;;;;;26.57;12.97;;;5.90;94.80;;;;;;5040279;28;20615;-92
2022/02/09 21:57:59;;;;;;;31.60;13.47;;;6.00;94.80;;;;;;5036542;28;20179;-91
2022/02/09 22:00:41;;;;;;;37.13;14.40;;;5.90;94.80;;;;;;5019582;28;20206;-92
2022/02/09 22:19:10;;;;;;;35.57;14.50;;;6.00;94.80;;;;;;5036051;28;20667;-92
2022/02/09 22:26:08;;;;;;;30.00;14.07;;;5.90;94.70;;;;;;5035638;28;20215;-91
2022/02/09 22:27:50;;;;;;;31.60;14.97;;;5.90;94.70;;;;;;5035018;28;20178;-92
2022/02/09 22:56:38;;;;;;;34.50;14.97;;;5.60;94.60;;;;;;5035075;28;20597;-90
2022/02/09 22:59:09;;;;;;;30.03;14.60;;;5.60;94.60;;;;;;5016796;28;20182;-90
2022/02/09 23:01:47;;;;;;;33.57;15.30;;;5.50;94.60;;;;;;5034111;28;20619;-90
2022/02/09 23:06:49;;;;;;;29.97;14.87;;;5.40;94.60;;;;;;5034285;28;20187;-90
2022/02/09 23:12:08;;;;;;;31.97;15.07;;;5.40;94.60;;;;;;5034192;28;20191;-90
2022/02/09 23:22:53;;;;;;;31.17;14.33;;;5.40;94.60;;;;;;5033534;28;20212;-90
